createdAt,value
2023-05-14T00:09:26.901Z,78087.19
2023-05-14T00:19:31.184Z,78071.47
2023-05-14T00:29:34.151Z,78058.03
2023-05-14T00:39:38.473Z,78037.31
2023-05-14T00:49:41.577Z,77998.69
2023-05-14T00:59:46.051Z,77976.94
2023-05-14T01:09:59.735Z,77960.94
2023-05-14T01:20:04.725Z,77938.06
2023-05-14T01:30:18.103Z,77934.09
2023-05-14T01:40:22.032Z,77913.50
2023-05-14T01:50:27.290Z,77883.22
2023-05-14T02:00:30.557Z,77873.50
2023-05-14T02:10:36.171Z,77864.94
2023-05-14T02:20:39.274Z,77854.50
2023-05-14T02:30:43.498Z,77860.22
2023-05-14T02:40:46.481Z,77860.34
2023-05-14T02:50:51.500Z,77863.63
2023-05-14T03:00:54.512Z,77846.06
2023-05-14T03:10:59.032Z,77834.06
2023-05-14T03:21:02.243Z,77817.34
2023-05-14T03:31:06.664Z,77788.38
2023-05-14T03:41:09.809Z,77765.53
2023-05-14T03:51:14.781Z,77747.81
2023-05-14T04:01:17.876Z,77742.09
2023-05-14T04:11:22.509Z,77731.13
2023-05-14T04:21:25.593Z,77724.84
2023-05-14T04:31:29.988Z,77727.69
2023-05-14T04:41:32.980Z,77717.00
2023-05-14T04:51:37.656Z,77726.13
2023-05-14T05:01:40.870Z,77748.41
2023-05-14T05:11:45.267Z,77782.53
2023-05-14T05:21:48.340Z,77779.22
2023-05-14T05:31:52.871Z,77802.06
2023-05-14T05:41:56.052Z,77820.94
2023-05-14T05:52:00.498Z,77850.06
2023-05-14T06:02:03.462Z,77859.22
2023-05-14T06:12:08.911Z,77864.94
2023-05-14T06:22:11.862Z,77926.09
2023-05-14T06:32:16.513Z,77926.50
2023-05-14T06:42:19.689Z,77946.09
2023-05-14T06:52:25.051Z,77995.81
2023-05-14T07:02:28.061Z,78075.75
2023-05-14T07:12:32.412Z,78150.84
2023-05-14T07:22:35.430Z,78200.31
2023-05-14T07:32:39.834Z,78231.53
2023-05-14T07:42:42.662Z,78253.34
2023-05-14T07:52:47.057Z,78274.47
2023-05-14T08:02:50.484Z,78287.66
2023-05-14T08:12:54.891Z,78353.50
2023-05-14T08:22:58.087Z,78427.41
2023-05-14T08:33:02.437Z,78436.25
2023-05-14T08:43:05.216Z,78448.84
2023-05-14T08:53:09.638Z,78502.94
2023-05-14T09:03:13.582Z,78528.53
2023-05-14T09:13:17.971Z,78614.28
2023-05-14T09:23:20.905Z,78636.19
2023-05-14T09:33:29.257Z,78663.72
2023-05-14T09:43:32.531Z,78699.06
2023-05-14T09:53:37.168Z,78727.41
2023-05-14T10:03:40.541Z,78743.81
2023-05-14T10:13:51.521Z,78786.41
2023-05-14T10:23:55.128Z,78803.72
2023-05-14T10:33:59.958Z,78774.94
2023-05-14T10:44:10.173Z,78745.66
2023-05-14T10:54:14.896Z,78823.34
2023-05-14T11:04:20.101Z,78831.28
2023-05-14T11:14:24.527Z,78855.41
2023-05-14T11:24:27.507Z,78885.81
2023-05-14T11:34:31.810Z,78924.28
2023-05-14T11:44:35.006Z,78935.28
2023-05-14T11:54:39.347Z,79002.94
2023-05-14T12:04:43.557Z,79029.50
2023-05-14T12:14:48.745Z,79051.69
2023-05-14T12:24:55.167Z,79087.31
2023-05-14T12:35:01.197Z,79027.09
2023-05-14T12:45:07.336Z,79088.09
2023-05-14T12:55:12.008Z,79131.31
2023-05-14T13:05:15.026Z,79178.53
2023-05-14T13:15:19.617Z,79170.16
2023-05-14T13:25:23.090Z,79194.22
2023-05-14T13:35:27.748Z,79294.25
2023-05-14T13:45:31.313Z,79328.19
2023-05-14T13:55:36.054Z,79173.13
2023-05-14T14:05:39.055Z,79146.72
2023-05-14T14:15:43.717Z,79172.94
2023-05-14T14:25:46.779Z,79150.25
2023-05-14T14:35:51.687Z,79198.47
2023-05-14T14:45:54.713Z,79165.00
2023-05-14T14:55:58.980Z,79069.50
2023-05-14T15:06:02.069Z,79051.44
2023-05-14T15:16:07.189Z,79055.13
2023-05-14T15:26:10.415Z,79051.22
2023-05-14T15:36:15.156Z,79029.16
2023-05-14T15:46:18.230Z,79040.19
2023-05-14T15:56:23.030Z,79046.72
2023-05-14T16:06:26.922Z,79041.47
2023-05-14T16:16:31.953Z,79018.91
2023-05-14T16:26:35.280Z,78946.69
2023-05-14T16:36:39.764Z,78915.78
2023-05-14T16:46:43.067Z,78887.41
2023-05-14T16:56:48.372Z,78851.94
2023-05-14T17:06:51.508Z,78836.19
2023-05-14T17:16:56.294Z,78802.47
2023-05-14T17:26:59.261Z,78755.38
2023-05-14T17:37:03.785Z,78696.44
2023-05-14T17:47:08.494Z,78619.00
2023-05-14T17:57:12.896Z,78577.47
2023-05-14T18:07:16.370Z,78532.88
2023-05-14T18:17:20.875Z,78511.09
2023-05-14T18:27:23.836Z,78480.16
2023-05-14T18:37:28.150Z,78436.63
2023-05-14T18:47:30.964Z,78367.97
2023-05-14T18:57:35.669Z,78329.91
2023-05-14T19:07:39.074Z,78295.53
2023-05-14T19:17:43.452Z,78269.91
2023-05-14T19:27:50.618Z,78236.69
2023-05-14T19:37:54.955Z,78219.56
2023-05-14T19:47:58.331Z,78168.56
2023-05-14T19:58:02.672Z,78141.69
2023-05-14T20:08:08.069Z,78113.06
2023-05-14T20:18:12.385Z,78077.31
2023-05-14T20:28:15.605Z,78053.44
2023-05-14T20:38:19.988Z,78057.59
2023-05-14T20:48:23.022Z,78036.47
2023-05-14T20:58:28.038Z,78011.72
2023-05-14T21:08:32.855Z,77988.97
2023-05-14T21:18:37.288Z,77971.66
2023-05-14T21:28:40.372Z,77965.41
2023-05-14T21:38:44.859Z,77931.94
2023-05-14T21:48:47.858Z,77915.78
2023-05-14T21:58:52.237Z,77903.22
2023-05-14T22:08:55.211Z,77898.09
2023-05-14T22:18:59.583Z,77885.53
2023-05-14T22:29:02.620Z,77869.50
2023-05-14T22:39:07.036Z,77857.34
2023-05-14T22:49:09.976Z,77837.03
2023-05-14T22:59:14.444Z,77851.63
2023-05-14T23:09:17.394Z,77844.66
2023-05-14T23:19:22.721Z,77805.50
2023-05-14T23:29:25.857Z,77791.06
2023-05-14T23:39:30.308Z,77783.22
2023-05-14T23:49:33.290Z,77771.22
2023-05-14T23:59:40.142Z,77750.09
